• Join FlightAware (Why Join?)
  • Login
  • US Flag 
04:22AM EDT


 

Airport Tracker/Info


-or-


 

Live Flight TrackerFlight Track Log ✈ N9305N ✈ 14-Jul-2014 ✈ KORL - KORL

Flight Track Log - Related Links

Times and Time Zones

All times are in EDT time to prevent confusion due to time zone crossing. See the N9305N flight status page for this flight to view local times or setup timezone preferences in your user account.

Time Position Orientation Groundspeed Altitude Reporting Facility
EDT Latitude Longitude Course Direction KTS MPH feet Rate Location/Type
07:41AM 28.5500 -81.3167 360° North 85 98 400  Level Orlando TRACON
07:42AM 28.5500 -81.3167 60° Northeast 82 94 700 480 Climbing Orlando TRACON
07:43AM 28.5667 -81.2833 60° Northeast 92 106 1,200 420 Climbing Orlando TRACON
07:44AM 28.6000 -81.2667 24° Northeast 110 127 1,600 180 Climbing Orlando TRACON
07:45AM 28.6167 -81.3000 300° West 107 123 1,600 240 Level Orlando TRACON
07:46AM 28.6500 -81.3167 336° Northwest 103 119 2,100 240 Climbing Orlando TRACON
07:47AM 28.6500 -81.3500 270° West 109 125 2,100  Level Orlando TRACON
07:48AM 28.6500 -81.3667 270° West 96 110 2,100  Level Orlando TRACON
07:49AM 28.6333 -81.4000 240° Southwest 100 115 2,100 -60 Level Orlando TRACON
07:50AM 28.6333 -81.4333 270° West 101 116 2,000  Descending Orlando TRACON
07:51AM 28.6167 -81.4667 240° Southwest 100 115 2,100  Climbing Orlando TRACON
07:52AM 28.6000 -81.4833 221° Southwest 102 117 2,100  Level Orlando TRACON
07:53AM 28.5833 -81.5167 240° Southwest 103 119 2,100  Level Orlando TRACON
07:54AM 28.5833 -81.5500 270° West 99 114 2,100 -60 Level Orlando TRACON
07:55AM 28.5667 -81.5667 221° Southwest 100 115 2,000  Descending Orlando TRACON
07:56AM 28.5333 -81.5833 204° Southwest 106 122 2,100  Climbing Orlando TRACON
07:57AM 28.5167 -81.5667 139° Southeast 106 122 2,100  Level Orlando TRACON
07:58AM 28.4833 -81.5500 156° South 94 108 2,100  Level Orlando TRACON
07:59AM 28.4833 -81.5167 90° East 105 121 2,100  Level Orlando TRACON
08:00AM 28.4833 -81.4833 90° East 105 121 2,100 -60 Level Orlando TRACON
08:01AM 28.5000 -81.4667 41° Northeast 100 115 2,000 -180 Descending Orlando TRACON
08:02AM 28.5167 -81.4333 60° Northeast 96 110 1,800 -360 Descending Orlando TRACON
08:03AM 28.5167 -81.4000 90° East 98 113 1,300 -540 Descending Orlando TRACON
08:04AM 28.5333 -81.3667 60° Northeast 97 112 800 -240 Descending Orlando TRACON
08:07AM 28.5500 -81.3167 69° East 92 106 500  Descending Orlando TRACON
08:07AM 28.5667 -81.2833 60° Northeast 103 119 1,000 480 Climbing Orlando TRACON
08:09AM 28.5833 -81.2667 41° Northeast 102 117 1,500 240 Climbing Orlando TRACON
08:10AM 28.6333 -81.2500 16° North 117 135 1,600 60 Climbing Orlando TRACON
08:11AM 28.6500 -81.2667 319° Northwest 111 128 1,700 300 Climbing Orlando TRACON
08:11AM 28.6667 -81.2833 319° Northwest 89 102 2,100 180 Climbing Orlando TRACON
08:13AM 28.6667 -81.3167 270° West 100 115 2,100  Level Orlando TRACON
08:13AM 28.6667 -81.3500 270° West 100 115 2,100 -60 Level Orlando TRACON
08:14AM 28.6500 -81.3833 240° Southwest 100 115 2,000  Descending Orlando TRACON
08:16AM 28.6500 -81.4000 270° West 97 112 2,100  Climbing Orlando TRACON
08:17AM 28.6333 -81.4333 240° Southwest 96 110 2,100  Level Orlando TRACON
08:18AM 28.6333 -81.4667 270° West 99 114 2,100 120 Level Orlando TRACON
08:19AM 28.6167 -81.4833 221° Southwest 91 105 2,400 360 Climbing Orlando TRACON
08:20AM 28.6000 -81.5000 221° Southwest 91 105 2,900 300 Climbing Orlando TRACON
08:21AM 28.5667 -81.5167 204° Southwest 101 116 3,000 60 Climbing Orlando TRACON
08:22AM 28.5500 -81.5167 180° South 99 114 3,100  Climbing Orlando TRACON
08:23AM 28.5167 -81.5333 204° Southwest 100 115 3,100  Level Orlando TRACON
08:23AM 28.5000 -81.5333 180° South 102 117 3,100  Level Orlando TRACON
08:24AM 28.4667 -81.5500 204° Southwest 101 116 3,100  Level Orlando TRACON
08:26AM 28.4500 -81.5667 221° Southwest 100 115 3,100 -60 Level Orlando TRACON
08:27AM 28.4333 -81.6000 240° Southwest 101 116 3,000  Descending Orlando TRACON
08:28AM 28.4167 -81.6167 221° Southwest 112 129 3,100  Climbing Orlando TRACON
08:28AM 28.4333 -81.6000 41° Northeast 114 131 3,100  Level Orlando TRACON
08:30AM 28.4500 -81.5667 60° Northeast 113 130 3,100 -300 Level Orlando TRACON
08:31AM 28.4667 -81.5333 60° Northeast 120 138 2,500 -540 Descending Orlando TRACON
08:32AM 28.4833 -81.5000 60° Northeast 109 125 2,100 -240 Descending Orlando TRACON
08:33AM 28.5000 -81.4667 60° Northeast 97 112 2,100  Level Orlando TRACON
08:34AM 28.5000 -81.4500 90° East 101 116 2,100 -300 Level Orlando TRACON
08:35AM 28.5167 -81.4167 60° Northeast 107 123 1,500 -600 Descending Orlando TRACON
08:36AM 28.5167 -81.3833 90° East 102 117 1,000 -420 Descending Orlando TRACON
08:37AM 28.5333 -81.3667 41° Northeast 85 98 700 -300 Descending Orlando TRACON